CFG63H EDDS-EDDH
Flight info
| Callsign | CFG63H |
|---|---|
| Flight time | N/A |
| Altitude | 35000 |
| Route | OKIBA4H OKIBA N851 RIMKI Z99 LOHRE DCT MASEK DCT ELNAT P605 NOLGO NOLGO3D |
| Aircraft | A320/M-SDE3FGHIRWY/LB1 |
Departure
| Time | 2026-05-01 11:41 |
|---|---|
| Airport | Stuttgart Airport (EDDS) |
Arrival
| Time | N/A |
|---|---|
| Airport | Hamburg Helmut Schmidt Airport (EDDH) |
| Time | Latitude | Longitude | Altitude | Speed | Heading |
|---|---|---|---|---|---|
| 2026-05-01 11:12 | 48.68857 | 9.19295 | 1285 ft | 0 kts | 345° |
| 2026-05-01 11:35 | 48.68851 | 9.19297 | 1285 ft | 2 kts | 346° |
| 2026-05-01 11:35 | 48.68832 | 9.19303 | 1289 ft | 3 kts | 354° |
| 2026-05-01 11:35 | 48.68812 | 9.19304 | 1288 ft | 3 kts | 9° |
| 2026-05-01 11:35 | 48.68794 | 9.19296 | 1287 ft | 3 kts | 42° |
| 2026-05-01 11:36 | 48.68786 | 9.19281 | 1289 ft | 1 kts | 75° |
| 2026-05-01 11:36 | 48.68785 | 9.19274 | 1289 ft | 0 kts | 75° |
| 2026-05-01 11:38 | 48.68788 | 9.19291 | 1289 ft | 6 kts | 75° |
| 2026-05-01 11:38 | 48.68802 | 9.19368 | 1285 ft | 8 kts | 75° |
| 2026-05-01 11:38 | 48.68818 | 9.19454 | 1288 ft | 9 kts | 73° |
| 2026-05-01 11:38 | 48.68837 | 9.19555 | 1288 ft | 11 kts | 74° |
| 2026-05-01 11:39 | 48.68862 | 9.19685 | 1287 ft | 14 kts | 74° |
| 2026-05-01 11:39 | 48.68887 | 9.19825 | 1285 ft | 13 kts | 82° |
| 2026-05-01 11:39 | 48.68822 | 9.19909 | 1285 ft | 14 kts | 144° |
| 2026-05-01 11:39 | 48.68731 | 9.19966 | 1286 ft | 15 kts | 165° |
| 2026-05-01 11:40 | 48.68627 | 9.20011 | 1289 ft | 14 kts | 163° |
| 2026-05-01 11:40 | 48.68591 | 9.20108 | 1289 ft | 12 kts | 73° |
| 2026-05-01 11:40 | 48.68643 | 9.20378 | 1287 ft | 58 kts | 74° |
| 2026-05-01 11:40 | 48.68820 | 9.21309 | 1288 ft | 123 kts | 74° |
| 2026-05-01 11:41 | 48.69103 | 9.22771 | 1405 ft | 160 kts | 75° |
| 2026-05-01 11:41 | 48.69386 | 9.24401 | 1996 ft | 161 kts | 77° |
| 2026-05-01 11:41 | 48.69678 | 9.26078 | 2706 ft | 163 kts | 78° |
| 2026-05-01 11:41 | 48.69987 | 9.27704 | 3424 ft | 163 kts | 77° |
| 2026-05-01 11:42 | 48.70302 | 9.29340 | 4059 ft | 161 kts | 77° |
| 2026-05-01 11:42 | 48.70615 | 9.30987 | 4645 ft | 167 kts | 77° |
| 2026-05-01 11:42 | 48.70954 | 9.32785 | 4959 ft | 188 kts | 78° |
| 2026-05-01 11:42 | 48.71332 | 9.34807 | 5179 ft | 211 kts | 77° |
| 2026-05-01 11:43 | 48.71757 | 9.37075 | 5411 ft | 236 kts | 77° |
| 2026-05-01 11:43 | 48.72230 | 9.39589 | 5844 ft | 257 kts | 76° |
| 2026-05-01 11:43 | 48.72737 | 9.42246 | 6518 ft | 267 kts | 77° |
| 2026-05-01 11:44 | 48.73806 | 9.47729 | 8164 ft | 275 kts | 73° |
| 2026-05-01 11:44 | 48.74799 | 9.50242 | 8969 ft | 284 kts | 49° |
| 2026-05-01 11:44 | 48.76425 | 9.51993 | 9780 ft | 294 kts | 25° |
| 2026-05-01 11:44 | 48.78451 | 9.52581 | 10566 ft | 302 kts | 0° |
| 2026-05-01 11:45 | 48.80624 | 9.52393 | 10881 ft | 325 kts | 358° |
| 2026-05-01 11:45 | 48.82955 | 9.52131 | 11162 ft | 345 kts | 358° |
| 2026-05-01 11:45 | 48.85346 | 9.51844 | 11769 ft | 353 kts | 358° |
| 2026-05-01 11:45 | 48.87800 | 9.51546 | 12499 ft | 356 kts | 357° |
| 2026-05-01 11:46 | 48.90279 | 9.51246 | 13283 ft | 358 kts | 358° |
| 2026-05-01 11:46 | 48.92807 | 9.50951 | 14013 ft | 361 kts | 359° |
| 2026-05-01 11:46 | 48.95304 | 9.50408 | 14654 ft | 366 kts | 348° |
| 2026-05-01 11:46 | 48.97722 | 9.49113 | 15285 ft | 372 kts | 336° |
| 2026-05-01 11:47 | 49.00061 | 9.47389 | 15902 ft | 375 kts | 335° |
| 2026-05-01 11:47 | 49.02419 | 9.45653 | 16514 ft | 378 kts | 336° |
| 2026-05-01 11:47 | 49.04800 | 9.43907 | 17135 ft | 381 kts | 336° |
| 2026-05-01 11:47 | 49.07204 | 9.42148 | 17721 ft | 386 kts | 336° |
| 2026-05-01 11:48 | 49.09630 | 9.40368 | 18339 ft | 388 kts | 336° |
| 2026-05-01 11:48 | 49.12071 | 9.38571 | 18897 ft | 391 kts | 336° |
| 2026-05-01 11:48 | 49.14505 | 9.36776 | 19397 ft | 394 kts | 336° |
| 2026-05-01 11:48 | 49.17022 | 9.34917 | 19534 ft | 410 kts | 336° |
| 2026-05-01 11:49 | 49.19673 | 9.33140 | 19650 ft | 422 kts | 342° |
| 2026-05-01 11:49 | 49.22526 | 9.31899 | 19774 ft | 431 kts | 351° |
| 2026-05-01 11:49 | 49.25530 | 9.31289 | 19904 ft | 440 kts | 359° |
| 2026-05-01 11:49 | 49.28616 | 9.31064 | 20028 ft | 448 kts | 359° |
| 2026-05-01 11:50 | 49.31752 | 9.30830 | 20237 ft | 453 kts | 359° |
| 2026-05-01 11:50 | 49.34911 | 9.30622 | 20533 ft | 455 kts | 2° |
| 2026-05-01 11:50 | 49.38070 | 9.30917 | 20838 ft | 454 kts | 8° |
| 2026-05-01 11:50 | 49.41216 | 9.31380 | 21167 ft | 455 kts | 7° |
| 2026-05-01 11:51 | 49.44377 | 9.31850 | 21479 ft | 456 kts | 6° |
| 2026-05-01 11:51 | 49.47538 | 9.32320 | 21793 ft | 457 kts | 6° |
| 2026-05-01 11:51 | 49.49639 | 9.32632 | 21974 ft | 458 kts | 6° |
| 2026-05-01 11:51 | 49.53891 | 9.33264 | 22352 ft | 460 kts | 7° |
| 2026-05-01 11:52 | 49.56000 | 9.33575 | 22545 ft | 460 kts | 8° |
| 2026-05-01 11:52 | 49.59192 | 9.34046 | 22792 ft | 462 kts | 7° |
| 2026-05-01 11:52 | 49.62397 | 9.34520 | 23066 ft | 462 kts | 7° |
| 2026-05-01 11:52 | 49.65603 | 9.34999 | 23307 ft | 464 kts | 7° |
| 2026-05-01 11:53 | 49.68820 | 9.35477 | 23531 ft | 465 kts | 8° |
| 2026-05-01 11:53 | 49.72039 | 9.35956 | 23777 ft | 465 kts | 7° |
| 2026-05-01 11:53 | 49.75247 | 9.36570 | 24030 ft | 464 kts | 12° |
| 2026-05-01 11:53 | 49.78385 | 9.37720 | 24319 ft | 462 kts | 15° |
| 2026-05-01 11:54 | 49.81494 | 9.38920 | 24584 ft | 461 kts | 15° |
| 2026-05-01 11:54 | 49.84604 | 9.40115 | 24831 ft | 460 kts | 15° |
| 2026-05-01 11:54 | 49.87718 | 9.41307 | 25121 ft | 459 kts | 15° |
| 2026-05-01 11:54 | 49.90818 | 9.42496 | 25376 ft | 459 kts | 15° |
| 2026-05-01 11:55 | 49.93913 | 9.43691 | 25678 ft | 457 kts | 15° |
| 2026-05-01 11:55 | 49.97005 | 9.44888 | 25942 ft | 457 kts | 14° |
| 2026-05-01 11:55 | 50.00102 | 9.46082 | 26269 ft | 456 kts | 14° |
| 2026-05-01 11:55 | 50.03177 | 9.47267 | 26559 ft | 455 kts | 14° |
| 2026-05-01 11:56 | 50.06258 | 9.48416 | 26835 ft | 455 kts | 12° |
| 2026-05-01 11:56 | 50.09396 | 9.49083 | 27147 ft | 455 kts | 7° |
| 2026-05-01 11:56 | 50.12546 | 9.49613 | 27431 ft | 455 kts | 6° |
| 2026-05-01 11:56 | 50.15684 | 9.50141 | 27779 ft | 453 kts | 7° |
| 2026-05-01 11:57 | 50.18816 | 9.50666 | 28067 ft | 453 kts | 7° |
| 2026-05-01 11:57 | 50.21956 | 9.51191 | 28396 ft | 452 kts | 7° |
| 2026-05-01 11:57 | 50.25076 | 9.51710 | 28742 ft | 450 kts | 7° |
| 2026-05-01 11:57 | 50.28195 | 9.52232 | 29039 ft | 451 kts | 6° |
| 2026-05-01 11:58 | 50.31303 | 9.52756 | 29395 ft | 449 kts | 6° |
| 2026-05-01 11:58 | 50.34409 | 9.53280 | 29713 ft | 449 kts | 7° |
| 2026-05-01 11:58 | 50.40610 | 9.54336 | 30411 ft | 447 kts | 7° |
| 2026-05-01 11:59 | 50.43705 | 9.54862 | 30671 ft | 447 kts | 7° |
| 2026-05-01 11:59 | 50.46792 | 9.55383 | 30980 ft | 445 kts | 7° |
| 2026-05-01 11:59 | 50.49870 | 9.55905 | 31256 ft | 445 kts | 6° |
| 2026-05-01 12:00 | 50.56026 | 9.56948 | 31819 ft | 444 kts | 6° |
| 2026-05-01 12:00 | 50.59092 | 9.57464 | 32087 ft | 443 kts | 6° |
| 2026-05-01 12:00 | 50.65206 | 9.58506 | 32712 ft | 441 kts | 6° |
| 2026-05-01 12:01 | 50.68252 | 9.59035 | 32980 ft | 440 kts | 6° |
| 2026-05-01 12:01 | 50.71294 | 9.59560 | 33310 ft | 439 kts | 6° |
| 2026-05-01 12:01 | 50.74328 | 9.60085 | 33561 ft | 439 kts | 6° |
| 2026-05-01 12:01 | 50.77357 | 9.60645 | 33863 ft | 437 kts | 7° |
| 2026-05-01 12:02 | 50.80370 | 9.61232 | 34187 ft | 436 kts | 7° |
| 2026-05-01 12:02 | 50.83385 | 9.61829 | 34441 ft | 436 kts | 7° |
| 2026-05-01 12:02 | 50.86390 | 9.62427 | 34706 ft | 435 kts | 7° |
| 2026-05-01 12:02 | 50.89356 | 9.63013 | 34906 ft | 435 kts | 7° |
| 2026-05-01 12:03 | 50.92362 | 9.63605 | 35128 ft | 435 kts | 7° |
| 2026-05-01 12:03 | 50.95366 | 9.64194 | 35331 ft | 435 kts | 7° |
| 2026-05-01 12:03 | 50.98380 | 9.64779 | 35385 ft | 438 kts | 6° |
| 2026-05-01 12:04 | 51.04479 | 9.65958 | 35387 ft | 444 kts | 7° |
| 2026-05-01 12:04 | 51.10627 | 9.67156 | 35387 ft | 445 kts | 7° |
| 2026-05-01 12:05 | 51.16785 | 9.68374 | 35385 ft | 445 kts | 7° |
| 2026-05-01 12:05 | 51.26038 | 9.70093 | 35384 ft | 446 kts | 6° |
| 2026-05-01 12:06 | 51.32223 | 9.71053 | 35384 ft | 446 kts | 5° |
| 2026-05-01 12:06 | 51.38408 | 9.72001 | 35382 ft | 447 kts | 5° |
| 2026-05-01 12:07 | 51.44601 | 9.73002 | 35382 ft | 448 kts | 6° |
| 2026-05-01 12:07 | 51.50803 | 9.74066 | 35382 ft | 449 kts | 6° |
| 2026-05-01 12:08 | 51.57006 | 9.75257 | 35386 ft | 449 kts | 7° |
| 2026-05-01 12:08 | 51.63215 | 9.76471 | 35390 ft | 450 kts | 6° |
| 2026-05-01 12:09 | 51.69442 | 9.77657 | 35389 ft | 451 kts | 6° |
| 2026-05-01 12:09 | 51.75677 | 9.78848 | 35392 ft | 451 kts | 6° |
| 2026-05-01 12:10 | 51.85036 | 9.80635 | 35394 ft | 452 kts | 6° |
| 2026-05-01 12:11 | 51.94409 | 9.82434 | 35390 ft | 452 kts | 7° |
| 2026-05-01 12:11 | 52.00663 | 9.83648 | 35389 ft | 453 kts | 7° |
| 2026-05-01 12:12 | 52.06920 | 9.84866 | 35389 ft | 453 kts | 7° |
| 2026-05-01 12:12 | 52.13138 | 9.86071 | 35385 ft | 453 kts | 7° |
| 2026-05-01 12:13 | 52.19398 | 9.87288 | 35385 ft | 453 kts | 7° |
| 2026-05-01 12:13 | 52.25646 | 9.88682 | 35385 ft | 453 kts | 13° |
| 2026-05-01 12:14 | 52.31737 | 9.91338 | 35388 ft | 453 kts | 14° |
| 2026-05-01 12:14 | 52.37828 | 9.94020 | 35386 ft | 453 kts | 15° |
| 2026-05-01 12:15 | 52.43892 | 9.96692 | 35405 ft | 454 kts | 15° |
| 2026-05-01 12:15 | 52.50004 | 9.99398 | 35411 ft | 455 kts | 15° |
| 2026-05-01 12:16 | 52.56120 | 10.02107 | 35412 ft | 455 kts | 15° |
| 2026-05-01 12:16 | 52.62179 | 10.04807 | 35440 ft | 453 kts | 15° |
| 2026-05-01 12:17 | 52.68241 | 10.07515 | 35436 ft | 450 kts | 16° |
| 2026-05-01 12:17 | 52.74286 | 10.10244 | 35429 ft | 449 kts | 15° |
| 2026-05-01 12:18 | 52.80430 | 10.11879 | 35429 ft | 448 kts | 1° |
| 2026-05-01 12:18 | 52.86634 | 10.12060 | 35410 ft | 437 kts | 1° |